Time,TemperatureF,DewpointF,PressureIn,WindDirection,WindDirectionDegrees,WindSpeedMPH,WindSpeedGustMPH,Humidity,HourlyPrecipIn,Conditions,Clouds,dailyrainin,SoftwareType,DateUTC
2013-05-21 00:02:00,61.2,51.3,30.50,SE,135,3.1,5.4,70,0.00,,,0.00,pywws,2013-05-20 22:02:00,
2013-05-21 00:04:00,61.5,52.0,30.50,SE,135,2.2,4.5,71,0.00,,,0.00,pywws,2013-05-20 22:04:00,
2013-05-21 00:07:00,61.9,52.0,30.50,East,90,1.6,3.1,70,0.00,,,0.00,pywws,2013-05-20 22:07:00,
2013-05-21 00:13:00,61.5,51.3,30.51,East,90,1.6,3.1,69,0.00,,,0.00,pywws,2013-05-20 22:13:00,
2013-05-21 00:18:00,61.3,51.1,30.51,East,90,1.6,3.1,69,0.00,,,0.00,pywws,2013-05-20 22:18:00,
2013-05-21 00:23:00,61.3,51.1,30.51,East,90,2.2,3.8,69,0.00,,,0.00,pywws,2013-05-20 22:23:00,
2013-05-21 00:29:00,61.9,51.6,30.50,SE,135,0.7,3.1,69,0.00,,,0.00,pywws,2013-05-20 22:29:00,
2013-05-21 00:34:00,61.5,51.3,30.50,East,90,0.7,3.8,69,0.00,,,0.00,pywws,2013-05-20 22:34:00,
2013-05-21 00:39:00,61.7,51.0,30.50,North,0,1.6,3.8,68,0.00,,,0.00,pywws,2013-05-20 22:39:00,
2013-05-21 00:45:00,61.7,51.0,30.50,East,90,3.8,6.0,68,0.00,,,0.00,pywws,2013-05-20 22:45:00,
2013-05-21 00:50:00,61.5,50.1,30.49,SE,135,1.6,2.2,66,0.00,,,0.00,pywws,2013-05-20 22:50:00,
2013-05-21 01:03:00,60.6,49.2,30.49,SE,135,1.6,3.8,66,0.00,,,0.00,pywws,2013-05-20 23:03:00,
2013-05-21 01:06:00,60.6,49.2,30.49,NE,45,0.0,0.7,66,0.00,,,0.00,pywws,2013-05-20 23:06:00,
2013-05-21 01:11:00,60.4,49.0,30.49,SE,135,1.6,3.1,66,0.00,,,0.00,pywws,2013-05-20 23:11:00,
2013-05-21 01:16:00,60.3,48.9,30.49,East,90,0.7,1.6,66,0.00,,,0.00,pywws,2013-05-20 23:16:00,
2013-05-21 01:21:00,60.8,49.4,30.48,NE,45,1.6,3.1,66,0.00,,,0.00,pywws,2013-05-20 23:21:00,
2013-05-21 01:26:00,60.4,49.0,30.48,North,0,1.6,3.1,66,0.00,,,0.00,pywws,2013-05-20 23:26:00,
2013-05-21 01:31:00,60.4,49.4,30.49,East,90,0.0,1.6,67,0.00,,,0.00,pywws,2013-05-20 23:31:00,
2013-05-21 01:36:00,60.6,50.0,30.48,North,0,0.7,2.2,68,0.00,,,0.00,pywws,2013-05-20 23:36:00,
2013-05-21 01:41:00,61.0,50.7,30.48,North,0,2.2,3.8,69,0.00,,,0.00,pywws,2013-05-20 23:41:00,
2013-05-21 01:46:00,60.6,50.4,30.48,NW,315,0.7,2.2,69,0.00,,,0.00,pywws,2013-05-20 23:46:00,
2013-05-21 01:51:00,61.0,51.1,30.48,North,0,0.7,1.6,70,0.00,,,0.00,pywws,2013-05-20 23:51:00,
2013-05-21 02:01:00,60.6,50.8,30.48,NW,315,0.7,1.6,70,0.00,,,0.00,pywws,2013-05-21 00:01:00,
2013-05-21 02:03:00,61.3,51.5,30.48,NNW,338,0.7,1.6,70,0.00,,,0.00,pywws,2013-05-21 00:03:00,
2013-05-21 02:06:00,60.6,50.8,30.48,NW,315,0.7,1.6,70,0.00,,,0.00,pywws,2013-05-21 00:06:00,
2013-05-21 02:11:00,61.3,51.9,30.48,North,0,0.0,0.7,71,0.00,,,0.00,pywws,2013-05-21 00:11:00,
2013-05-21 02:16:00,61.0,51.9,30.47,North,0,0.7,2.2,72,0.00,,,0.00,pywws,2013-05-21 00:16:00,
2013-05-21 02:21:00,61.0,51.9,30.47,NW,315,0.7,3.1,72,0.00,,,0.00,pywws,2013-05-21 00:21:00,
2013-05-21 02:26:00,61.3,51.9,30.47,North,0,0.7,1.6,71,0.00,,,0.00,pywws,2013-05-21 00:26:00,
2013-05-21 02:31:00,59.2,50.2,30.47,North,0,0.0,0.7,72,0.00,,,0.00,pywws,2013-05-21 00:31:00,
2013-05-21 02:36:00,60.8,51.7,30.48,North,0,0.7,1.6,72,0.00,,,0.00,pywws,2013-05-21 00:36:00,
2013-05-21 02:41:00,60.1,51.0,30.48,East,90,0.0,1.6,72,0.00,,,0.00,pywws,2013-05-21 00:41:00,
2013-05-21 02:46:00,59.4,50.7,30.48,East,90,1.6,3.1,73,0.00,,,0.00,pywws,2013-05-21 00:46:00,
2013-05-21 02:51:00,59.5,51.2,30.49,East,90,0.7,1.6,74,0.00,,,0.00,pywws,2013-05-21 00:51:00,
2013-05-21 03:01:00,59.5,51.2,30.49,East,90,1.6,2.2,74,0.00,,,0.00,pywws,2013-05-21 01:01:00,
2013-05-21 03:04:00,59.5,51.2,30.49,East,90,0.7,2.2,74,0.00,,,0.00,pywws,2013-05-21 01:04:00,
2013-05-21 03:06:00,59.5,51.2,30.48,East,90,1.6,2.2,74,0.00,,,0.00,pywws,2013-05-21 01:06:00,
2013-05-21 03:11:00,58.8,50.9,30.49,NE,45,1.6,3.1,75,0.00,,,0.00,pywws,2013-05-21 01:11:00,
2013-05-21 03:16:00,58.1,49.9,30.48,NE,45,2.2,3.8,74,0.00,,,0.00,pywws,2013-05-21 01:16:00,
2013-05-21 03:21:00,58.1,49.9,30.48,North,0,0.7,1.6,74,0.00,,,0.00,pywws,2013-05-21 01:21:00,
2013-05-21 03:26:00,56.3,48.1,30.48,East,90,2.2,3.8,74,0.00,,,0.00,pywws,2013-05-21 01:26:00,
2013-05-21 03:31:00,57.6,49.7,30.48,East,90,3.1,3.8,75,0.00,,,0.00,pywws,2013-05-21 01:31:00,
2013-05-21 03:36:00,56.3,48.5,30.48,SE,135,2.2,3.8,75,0.00,,,0.00,pywws,2013-05-21 01:36:00,
2013-05-21 03:41:00,55.8,48.0,30.49,East,90,2.2,6.0,75,0.00,,,0.00,pywws,2013-05-21 01:41:00,
2013-05-21 03:46:00,56.8,48.6,30.49,NE,45,3.1,4.5,74,0.00,,,0.00,pywws,2013-05-21 01:46:00,
2013-05-21 03:51:00,56.8,48.6,30.49,SE,135,2.2,4.5,74,0.00,,,0.00,pywws,2013-05-21 01:51:00,
2013-05-21 04:04:00,57.0,48.8,30.49,ESE,112,2.2,4.5,74,0.00,,,0.00,pywws,2013-05-21 02:04:00,
2013-05-21 04:06:00,56.1,47.9,30.48,NE,45,1.6,4.5,74,0.00,,,0.00,pywws,2013-05-21 02:06:00,
2013-05-21 04:11:00,56.7,48.5,30.48,NE,45,0.0,1.6,74,0.00,,,0.00,pywws,2013-05-21 02:11:00,
2013-05-21 04:16:00,56.1,47.9,30.48,East,90,1.6,3.1,74,0.00,,,0.00,pywws,2013-05-21 02:16:00,
2013-05-21 04:21:00,56.1,47.9,30.48,SE,135,2.2,3.8,74,0.00,,,0.00,pywws,2013-05-21 02:21:00,
2013-05-21 04:26:00,55.9,47.8,30.48,NE,45,0.7,2.2,74,0.00,,,0.00,pywws,2013-05-21 02:26:00,
2013-05-21 04:31:00,56.1,47.9,30.48,South,180,1.6,2.2,74,0.00,,,0.00,pywws,2013-05-21 02:31:00,
2013-05-21 04:36:00,55.9,47.8,30.48,East,90,0.7,2.2,74,0.00,,,0.00,pywws,2013-05-21 02:36:00,
2013-05-21 04:41:00,56.1,47.9,30.49,East,90,1.6,2.2,74,0.00,,,0.00,pywws,2013-05-21 02:41:00,
2013-05-21 04:46:00,56.5,48.7,30.49,East,90,1.6,3.1,75,0.00,,,0.00,pywws,2013-05-21 02:46:00,
2013-05-21 04:51:00,56.5,48.7,30.49,SE,135,1.6,3.1,75,0.00,,,0.00,pywws,2013-05-21 02:51:00,
2013-05-21 05:04:00,56.5,48.7,30.48,East,90,1.6,2.2,75,0.00,,,0.00,pywws,2013-05-21 03:04:00,
2013-05-21 05:05:00,56.3,48.5,30.48,East,90,1.6,3.1,75,0.00,,,0.00,pywws,2013-05-21 03:05:00,
2013-05-21 05:10:00,55.8,48.0,30.48,North,0,0.7,2.2,75,0.00,,,0.00,pywws,2013-05-21 03:10:00,
2013-05-21 05:15:00,55.9,48.1,30.48,East,90,3.1,5.4,75,0.00,,,0.00,pywws,2013-05-21 03:15:00,
2013-05-21 05:20:00,56.1,48.3,30.48,SE,135,2.2,4.5,75,0.00,,,0.00,pywws,2013-05-21 03:20:00,
2013-05-21 05:25:00,55.6,47.8,30.48,SE,135,1.6,3.8,75,0.00,,,0.00,pywws,2013-05-21 03:25:00,
2013-05-21 05:30:00,55.8,47.6,30.47,SE,135,2.2,3.8,74,0.00,,,0.00,pywws,2013-05-21 03:30:00,
2013-05-21 05:35:00,55.8,47.2,30.47,SSE,158,1.6,3.8,73,0.00,,,0.00,pywws,2013-05-21 03:35:00,
2013-05-21 05:40:00,55.4,46.5,30.47,East,90,1.6,5.4,72,0.00,,,0.00,pywws,2013-05-21 03:40:00,
2013-05-21 05:45:00,55.8,46.9,30.47,ESE,112,2.2,3.8,72,0.00,,,0.00,pywws,2013-05-21 03:45:00,
2013-05-21 05:50:00,55.9,47.0,30.47,SE,135,2.2,4.5,72,0.00,,,0.00,pywws,2013-05-21 03:50:00,
2013-05-21 06:04:00,55.8,46.5,30.47,SE,135,2.2,4.5,71,0.00,,,0.00,pywws,2013-05-21 04:04:00,
2013-05-21 06:06:00,57.4,47.7,30.47,East,90,0.7,3.1,70,0.00,,,0.00,pywws,2013-05-21 04:06:00,
2013-05-21 06:11:00,57.0,46.9,30.47,East,90,1.6,2.2,69,0.00,,,0.00,pywws,2013-05-21 04:11:00,
2013-05-21 06:16:00,57.2,47.1,30.48,North,0,0.0,0.7,69,0.00,,,0.00,pywws,2013-05-21 04:16:00,
2013-05-21 06:21:00,57.6,46.7,30.47,NE,45,0.7,2.2,67,0.00,,,0.00,pywws,2013-05-21 04:21:00,
2013-05-21 06:26:00,58.3,47.4,30.47,East,90,2.2,3.8,67,0.00,,,0.00,pywws,2013-05-21 04:26:00,
2013-05-21 06:31:00,58.3,47.4,30.47,East,90,0.7,2.2,67,0.00,,,0.00,pywws,2013-05-21 04:31:00,
2013-05-21 06:36:00,58.5,47.5,30.47,East,90,0.0,2.2,67,0.00,,,0.00,pywws,2013-05-21 04:36:00,
2013-05-21 06:41:00,58.5,47.5,30.47,East,90,0.7,3.1,67,0.00,,,0.00,pywws,2013-05-21 04:41:00,
2013-05-21 06:46:00,59.2,47.8,30.47,ENE,68,0.7,1.6,66,0.00,,,0.00,pywws,2013-05-21 04:46:00,
2013-05-21 06:51:00,60.3,48.0,30.47,SE,135,1.6,3.8,64,0.00,,,0.00,pywws,2013-05-21 04:51:00,
2013-05-21 07:01:00,61.0,47.9,30.47,North,0,0.7,2.2,62,0.00,,,0.00,pywws,2013-05-21 05:01:00,
2013-05-21 07:04:00,61.0,47.9,30.47,NE,45,0.7,1.6,62,0.00,,,0.00,pywws,2013-05-21 05:04:00,
2013-05-21 07:06:00,60.6,47.5,30.47,NW,315,0.0,1.6,62,0.00,,,0.00,pywws,2013-05-21 05:06:00,
2013-05-21 07:11:00,61.3,48.6,30.47,North,0,0.0,0.0,63,0.00,,,0.00,pywws,2013-05-21 05:11:00,
2013-05-21 07:16:00,61.2,47.6,30.46,East,90,0.7,2.2,61,0.00,,,0.00,pywws,2013-05-21 05:16:00,
2013-05-21 07:21:00,61.5,48.4,30.47,South,180,0.0,1.6,62,0.00,,,0.00,pywws,2013-05-21 05:21:00,
2013-05-21 07:26:00,61.2,48.5,30.47,NNW,338,0.0,0.7,63,0.00,,,0.00,pywws,2013-05-21 05:26:00,
2013-05-21 07:31:00,61.3,49.1,30.48,West,270,1.6,3.1,64,0.00,,,0.00,pywws,2013-05-21 05:31:00,
2013-05-21 07:36:00,62.1,50.2,30.48,West,270,0.7,1.6,65,0.00,,,0.00,pywws,2013-05-21 05:36:00,
2013-05-21 07:41:00,63.5,50.7,30.48,North,0,0.0,1.6,63,0.00,,,0.00,pywws,2013-05-21 05:41:00,
2013-05-21 07:46:00,65.5,51.2,30.48,NW,315,0.7,2.2,60,0.00,,,0.00,pywws,2013-05-21 05:46:00,
2013-05-21 07:51:00,64.8,51.0,30.48,NW,315,0.0,1.6,61,0.00,,,0.00,pywws,2013-05-21 05:51:00,
2013-05-21 08:01:00,63.5,51.1,30.48,NW,315,0.7,1.6,64,0.00,,,0.00,pywws,2013-05-21 06:01:00,
2013-05-21 08:04:00,63.7,51.3,30.48,NW,315,0.7,2.2,64,0.00,,,0.00,pywws,2013-05-21 06:04:00,
2013-05-21 08:06:00,63.1,50.8,30.48,NW,315,0.7,1.6,64,0.00,,,0.00,pywws,2013-05-21 06:06:00,
2013-05-21 08:11:00,63.3,50.1,30.48,North,0,0.7,1.6,62,0.00,,,0.00,pywws,2013-05-21 06:11:00,
2013-05-21 08:16:00,64.2,49.6,30.47,NE,45,1.6,3.1,59,0.00,,,0.00,pywws,2013-05-21 06:16:00,
2013-05-21 08:21:00,64.2,50.0,30.47,NE,45,1.6,3.1,60,0.00,,,0.00,pywws,2013-05-21 06:21:00,
2013-05-21 08:26:00,64.4,50.7,30.48,NE,45,0.7,3.1,61,0.00,,,0.00,pywws,2013-05-21 06:26:00,
2013-05-21 08:31:00,63.1,49.0,30.48,NE,45,1.6,2.2,60,0.00,,,0.00,pywws,2013-05-21 06:31:00,
2013-05-21 08:36:00,63.5,50.2,30.47,NE,45,0.0,1.6,62,0.00,,,0.00,pywws,2013-05-21 06:36:00,
2013-05-21 08:41:00,62.8,49.6,30.48,NW,315,0.7,2.2,62,0.00,,,0.00,pywws,2013-05-21 06:41:00,
2013-05-21 08:46:00,63.0,49.7,30.48,NW,315,0.7,2.2,62,0.00,,,0.00,pywws,2013-05-21 06:46:00,
2013-05-21 08:51:00,63.3,50.9,30.48,NW,315,1.6,2.2,64,0.00,,,0.00,pywws,2013-05-21 06:51:00,
2013-05-21 09:01:00,62.2,53.1,30.47,NNW,338,5.4,6.9,72,0.00,,,0.00,pywws,2013-05-21 07:01:00,
2013-05-21 09:04:00,62.8,52.1,30.49,West,270,1.6,3.8,68,0.00,,,0.00,pywws,2013-05-21 07:04:00,
2013-05-21 09:06:00,62.1,52.9,30.47,North,0,4.5,6.9,72,0.00,,,0.00,pywws,2013-05-21 07:06:00,
2013-05-21 09:11:00,61.5,52.4,30.47,North,0,3.1,5.4,72,0.00,,,0.00,pywws,2013-05-21 07:11:00,
2013-05-21 09:16:00,62.4,52.9,30.47,NW,315,3.8,6.0,71,0.00,,,0.00,pywws,2013-05-21 07:16:00,
2013-05-21 09:21:00,63.3,53.0,30.47,NW,315,4.5,6.0,69,0.00,,,0.00,pywws,2013-05-21 07:21:00,
2013-05-21 09:26:00,65.3,53.2,30.47,NW,315,3.1,5.4,65,0.00,,,0.00,pywws,2013-05-21 07:26:00,
2013-05-21 09:31:00,66.4,53.8,30.47,NE,45,3.8,5.4,64,0.00,,,0.00,pywws,2013-05-21 07:31:00,
2013-05-21 09:36:00,65.5,50.8,30.46,NW,315,4.5,8.3,59,0.00,,,0.00,pywws,2013-05-21 07:36:00,
2013-05-21 09:41:00,65.3,50.6,30.46,NW,315,3.8,6.9,59,0.00,,,0.00,pywws,2013-05-21 07:41:00,
2013-05-21 09:46:00,65.1,49.5,30.47,NW,315,0.7,1.6,57,0.00,,,0.00,pywws,2013-05-21 07:46:00,
2013-05-21 09:51:00,66.7,50.5,30.47,North,0,1.6,3.1,56,0.00,,,0.00,pywws,2013-05-21 07:51:00,
2013-05-21 10:01:00,68.7,48.2,30.46,North,0,2.2,3.8,48,0.00,,,0.00,pywws,2013-05-21 08:01:00,
2013-05-21 10:03:00,66.9,49.2,30.47,North,0,0.0,2.2,53,0.00,,,0.00,pywws,2013-05-21 08:03:00,
2013-05-21 10:06:00,69.3,49.3,30.46,North,0,0.7,3.1,49,0.00,,,0.00,pywws,2013-05-21 08:06:00,
2013-05-21 10:11:00,70.0,49.9,30.46,NW,315,1.6,5.4,49,0.00,,,0.00,pywws,2013-05-21 08:11:00,
2013-05-21 10:16:00,69.1,50.2,30.46,NW,315,0.7,3.1,51,0.00,,,0.00,pywws,2013-05-21 08:16:00,
2013-05-21 10:21:00,68.5,51.2,30.45,NW,315,4.5,6.0,54,0.00,,,0.00,pywws,2013-05-21 08:21:00,
2013-05-21 10:26:00,68.0,50.7,30.45,NW,315,3.8,6.0,54,0.00,,,0.00,pywws,2013-05-21 08:26:00,
2013-05-21 10:31:00,68.7,50.9,30.45,NW,315,3.1,6.0,53,0.00,,,0.00,pywws,2013-05-21 08:31:00,
2013-05-21 10:36:00,69.4,50.0,30.44,NW,315,5.4,9.2,50,0.00,,,0.00,pywws,2013-05-21 08:36:00,
2013-05-21 10:41:00,68.4,48.4,30.44,North,0,4.5,6.9,49,0.00,,,0.00,pywws,2013-05-21 08:41:00,
2013-05-21 10:46:00,68.9,50.0,30.44,NW,315,5.4,10.7,51,0.00,,,0.00,pywws,2013-05-21 08:46:00,
2013-05-21 10:51:00,68.7,49.9,30.44,SE,135,4.5,7.6,51,0.00,,,0.00,pywws,2013-05-21 08:51:00,
2013-05-21 11:01:00,68.5,49.2,30.44,North,0,5.4,9.2,50,0.00,,,0.00,pywws,2013-05-21 09:01:00,
2013-05-21 11:04:00,70.9,51.8,30.44,NW,315,5.4,7.6,51,0.00,,,0.00,pywws,2013-05-21 09:04:00,
2013-05-21 11:06:00,68.5,49.2,30.44,North,0,6.9,9.8,50,0.00,,,0.00,pywws,2013-05-21 09:06:00,
2013-05-21 11:11:00,67.8,50.6,30.44,North,0,5.4,8.3,54,0.00,,,0.00,pywws,2013-05-21 09:11:00,
2013-05-21 11:16:00,68.0,50.7,30.45,NW,315,3.1,4.5,54,0.00,,,0.00,pywws,2013-05-21 09:16:00,
2013-05-21 11:21:00,68.2,50.9,30.45,NW,315,4.5,7.6,54,0.00,,,0.00,pywws,2013-05-21 09:21:00,
2013-05-21 11:26:00,66.6,49.4,30.45,NW,315,5.4,8.3,54,0.00,,,0.00,pywws,2013-05-21 09:26:00,
2013-05-21 11:31:00,66.7,49.6,30.45,NW,315,3.8,8.3,54,0.00,,,0.00,pywws,2013-05-21 09:31:00,
2013-05-21 11:36:00,67.6,49.9,30.45,West,270,3.8,6.9,53,0.00,,,0.00,pywws,2013-05-21 09:36:00,
2013-05-21 11:41:00,70.0,52.1,30.45,NW,315,6.0,9.2,53,0.00,,,0.00,pywws,2013-05-21 09:41:00,
2013-05-21 11:46:00,69.6,51.2,30.45,NW,315,3.1,5.4,52,0.00,,,0.00,pywws,2013-05-21 09:46:00,
2013-05-21 11:51:00,69.8,51.4,30.45,NW,315,4.5,10.7,52,0.00,,,0.00,pywws,2013-05-21 09:51:00,
2013-05-21 12:01:00,68.5,50.7,30.44,North,0,3.8,9.8,53,0.00,,,0.00,pywws,2013-05-21 10:01:00,
2013-05-21 12:04:00,68.9,50.5,30.44,NW,315,6.0,12.1,52,0.00,,,0.00,pywws,2013-05-21 10:04:00,
2013-05-21 12:06:00,68.0,52.2,30.44,NW,315,6.9,9.2,57,0.00,,,0.00,pywws,2013-05-21 10:06:00,
2013-05-21 12:11:00,69.1,54.1,30.44,NW,315,3.8,6.0,59,0.00,,,0.00,pywws,2013-05-21 10:11:00,
2013-05-21 12:16:00,69.6,54.2,30.44,NW,315,4.5,7.6,58,0.00,,,0.00,pywws,2013-05-21 10:16:00,
2013-05-21 12:21:00,70.0,54.5,30.44,NW,315,5.4,9.2,58,0.00,,,0.00,pywws,2013-05-21 10:21:00,
2013-05-21 12:26:00,69.4,54.0,30.44,WNW,292,5.4,9.8,58,0.00,,,0.00,pywws,2013-05-21 10:26:00,
2013-05-21 12:31:00,68.4,53.0,30.44,NW,315,4.5,7.6,58,0.00,,,0.00,pywws,2013-05-21 10:31:00,
2013-05-21 12:36:00,69.3,53.8,30.43,NW,315,3.8,6.9,58,0.00,,,0.00,pywws,2013-05-21 10:36:00,
2013-05-21 12:41:00,69.4,52.6,30.43,NW,315,4.5,8.3,55,0.00,,,0.00,pywws,2013-05-21 10:41:00,
2013-05-21 12:46:00,69.8,52.4,30.43,NW,315,3.8,5.4,54,0.00,,,0.00,pywws,2013-05-21 10:46:00,
2013-05-21 12:51:00,69.8,51.4,30.43,NW,315,6.9,9.8,52,0.00,,,0.00,pywws,2013-05-21 10:51:00,
2013-05-21 13:01:00,69.3,50.3,30.43,NW,315,6.0,9.8,51,0.00,,,0.00,pywws,2013-05-21 11:01:00,
2013-05-21 13:04:00,70.3,51.9,30.43,NW,315,4.5,6.9,52,0.00,,,0.00,pywws,2013-05-21 11:04:00,
2013-05-21 13:06:00,69.4,50.5,30.43,NW,315,4.5,9.2,51,0.00,,,0.00,pywws,2013-05-21 11:06:00,
2013-05-21 13:11:00,69.6,51.7,30.43,West,270,5.4,8.3,53,0.00,,,0.00,pywws,2013-05-21 11:11:00,
2013-05-21 13:16:00,69.8,52.4,30.43,NW,315,5.4,10.7,54,0.00,,,0.00,pywws,2013-05-21 11:16:00,
2013-05-21 13:21:00,68.5,50.7,30.42,NW,315,6.0,9.2,53,0.00,,,0.00,pywws,2013-05-21 11:21:00,
2013-05-21 13:26:00,68.0,50.7,30.43,NW,315,6.0,9.8,54,0.00,,,0.00,pywws,2013-05-21 11:26:00,
2013-05-21 13:31:00,68.9,52.5,30.42,WNW,292,3.8,6.0,56,0.00,,,0.00,pywws,2013-05-21 11:31:00,
2013-05-21 13:36:00,67.3,50.1,30.42,NW,315,7.6,11.4,54,0.00,,,0.00,pywws,2013-05-21 11:36:00,
2013-05-21 13:41:00,67.6,49.9,30.42,NW,315,5.4,7.6,53,0.00,,,0.00,pywws,2013-05-21 11:41:00,
2013-05-21 13:46:00,67.5,49.2,30.42,WNW,292,5.4,8.3,52,0.00,,,0.00,pywws,2013-05-21 11:46:00,
2013-05-21 13:51:00,67.5,50.2,30.42,NW,315,3.8,6.9,54,0.00,,,0.00,pywws,2013-05-21 11:51:00,
2013-05-21 14:01:00,68.4,52.0,30.42,NW,315,3.1,4.5,56,0.00,,,0.00,pywws,2013-05-21 12:01:00,
2013-05-21 14:04:00,68.4,51.1,30.42,NW,315,3.8,6.9,54,0.00,,,0.00,pywws,2013-05-21 12:04:00,
2013-05-21 14:06:00,68.5,52.2,30.41,West,270,6.0,9.8,56,0.00,,,0.00,pywws,2013-05-21 12:06:00,
2013-05-21 14:11:00,67.5,51.7,30.41,NW,315,4.5,6.9,57,0.00,,,0.00,pywws,2013-05-21 12:11:00,
2013-05-21 14:16:00,67.5,52.2,30.41,West,270,3.1,7.6,58,0.00,,,0.00,pywws,2013-05-21 12:16:00,
2013-05-21 14:21:00,67.6,52.3,30.41,North,0,3.1,5.4,58,0.00,,,0.00,pywws,2013-05-21 12:21:00,
2013-05-21 14:26:00,68.0,52.7,30.41,NW,315,3.8,7.6,58,0.00,,,0.00,pywws,2013-05-21 12:26:00,
2013-05-21 14:31:00,67.1,51.8,30.41,North,0,4.5,6.9,58,0.00,,,0.00,pywws,2013-05-21 12:31:00,
2013-05-21 14:36:00,67.1,51.8,30.41,NW,315,6.0,9.2,58,0.00,,,0.00,pywws,2013-05-21 12:36:00,
2013-05-21 14:41:00,68.0,52.7,30.41,North,0,3.8,5.4,58,0.00,,,0.00,pywws,2013-05-21 12:41:00,
2013-05-21 14:46:00,68.9,53.5,30.40,NW,315,3.1,7.6,58,0.00,,,0.00,pywws,2013-05-21 12:46:00,
2013-05-21 14:51:00,68.0,52.2,30.40,NW,315,4.5,7.6,57,0.00,,,0.00,pywws,2013-05-21 12:51:00,
2013-05-21 15:01:00,70.3,53.9,30.39,NW,315,3.1,5.4,56,0.00,,,0.00,pywws,2013-05-21 13:01:00,
2013-05-21 15:04:00,68.4,52.5,30.40,NW,315,6.9,9.8,57,0.00,,,0.00,pywws,2013-05-21 13:04:00,
2013-05-21 15:06:00,70.0,53.1,30.39,NNW,338,3.1,6.0,55,0.00,,,0.00,pywws,2013-05-21 13:06:00,
2013-05-21 15:11:00,69.8,52.9,30.40,North,0,6.0,10.7,55,0.00,,,0.00,pywws,2013-05-21 13:11:00,
2013-05-21 15:16:00,69.6,53.2,30.40,NW,315,5.4,8.3,56,0.00,,,0.00,pywws,2013-05-21 13:16:00,
2013-05-21 15:21:00,70.2,54.2,30.39,NW,315,3.8,7.6,57,0.00,,,0.00,pywws,2013-05-21 13:21:00,
2013-05-21 15:26:00,70.2,54.2,30.39,North,0,0.7,2.2,57,0.00,,,0.00,pywws,2013-05-21 13:26:00,
2013-05-21 15:31:00,69.3,53.4,30.39,NW,315,6.0,9.8,57,0.00,,,0.00,pywws,2013-05-21 13:31:00,
2013-05-21 15:36:00,69.1,54.1,30.38,NW,315,5.4,11.4,59,0.00,,,0.00,pywws,2013-05-21 13:36:00,
2013-05-21 15:41:00,67.8,53.4,30.38,North,0,6.9,11.4,60,0.00,,,0.00,pywws,2013-05-21 13:41:00,
2013-05-21 15:46:00,67.6,54.1,30.38,SW,225,5.4,8.3,62,0.00,,,0.00,pywws,2013-05-21 13:46:00,
2013-05-21 15:51:00,68.4,55.3,30.37,West,270,4.5,7.6,63,0.00,,,0.00,pywws,2013-05-21 13:51:00,
2013-05-21 16:01:00,68.4,54.8,30.37,NW,315,6.0,8.3,62,0.00,,,0.00,pywws,2013-05-21 14:01:00,
2013-05-21 16:03:00,68.4,54.8,30.37,NW,315,2.2,5.4,62,0.00,,,0.00,pywws,2013-05-21 14:03:00,
2013-05-21 16:06:00,67.5,54.4,30.38,North,0,7.6,10.7,63,0.00,,,0.00,pywws,2013-05-21 14:06:00,
2013-05-21 16:11:00,66.7,53.7,30.38,North,0,5.4,6.9,63,0.00,,,0.00,pywws,2013-05-21 14:11:00,
2013-05-21 16:16:00,67.1,54.5,30.38,NW,315,3.8,7.6,64,0.00,,,0.00,pywws,2013-05-21 14:16:00,
2013-05-21 16:21:00,68.2,56.0,30.38,North,0,1.6,3.1,65,0.00,,,0.00,pywws,2013-05-21 14:21:00,
2013-05-21 16:26:00,67.6,55.4,30.38,West,270,4.5,6.9,65,0.00,,,0.00,pywws,2013-05-21 14:26:00,
2013-05-21 16:31:00,67.5,55.7,30.37,SW,225,3.8,6.0,66,0.00,,,0.00,pywws,2013-05-21 14:31:00,
2013-05-21 16:36:00,67.5,55.7,30.37,NW,315,3.1,4.5,66,0.00,,,0.00,pywws,2013-05-21 14:36:00,
2013-05-21 16:41:00,68.5,57.1,30.37,West,270,2.2,4.5,67,0.00,,,0.00,pywws,2013-05-21 14:41:00,
2013-05-21 16:46:00,66.2,54.9,30.37,West,270,3.8,6.0,67,0.00,,,0.00,pywws,2013-05-21 14:46:00,
2013-05-21 16:51:00,67.1,55.8,30.37,NE,45,4.5,6.0,67,0.00,,,0.00,pywws,2013-05-21 14:51:00,
2013-05-21 17:01:00,67.5,56.5,30.37,North,0,3.8,6.9,68,0.00,,,0.00,pywws,2013-05-21 15:01:00,
2013-05-21 17:04:00,67.1,56.2,30.37,NW,315,2.2,5.4,68,0.00,,,0.00,pywws,2013-05-21 15:04:00,
2013-05-21 17:06:00,67.6,56.3,30.36,North,0,3.1,5.4,67,0.00,,,0.00,pywws,2013-05-21 15:06:00,
2013-05-21 17:11:00,66.6,55.3,30.37,North,0,1.6,4.5,67,0.00,,,0.00,pywws,2013-05-21 15:11:00,
2013-05-21 17:16:00,67.3,55.9,30.36,NW,315,2.2,4.5,67,0.00,,,0.00,pywws,2013-05-21 15:16:00,
2013-05-21 17:21:00,66.2,54.9,30.36,NW,315,3.1,4.5,67,0.00,,,0.00,pywws,2013-05-21 15:21:00,
2013-05-21 17:26:00,66.0,54.3,30.35,NE,45,2.2,5.4,66,0.00,,,0.00,pywws,2013-05-21 15:26:00,
2013-05-21 17:31:00,66.6,55.3,30.35,NW,315,2.2,3.8,67,0.00,,,0.00,pywws,2013-05-21 15:31:00,
2013-05-21 17:36:00,65.8,54.2,30.35,NW,315,1.6,2.2,66,0.00,,,0.00,pywws,2013-05-21 15:36:00,
2013-05-21 17:41:00,66.6,54.4,30.35,NW,315,2.2,4.5,65,0.00,,,0.00,pywws,2013-05-21 15:41:00,
2013-05-21 17:46:00,66.4,54.3,30.35,North,0,1.6,3.8,65,0.00,,,0.00,pywws,2013-05-21 15:46:00,
2013-05-21 17:51:00,65.5,53.4,30.36,NW,315,1.6,2.2,65,0.00,,,0.00,pywws,2013-05-21 15:51:00,
2013-05-21 18:01:00,65.7,53.6,30.35,East,90,1.6,2.2,65,0.00,,,0.00,pywws,2013-05-21 16:01:00,
2013-05-21 18:04:00,66.7,54.2,30.35,North,0,0.7,2.2,64,0.00,,,0.00,pywws,2013-05-21 16:04:00,
2013-05-21 18:06:00,66.6,54.4,30.34,North,0,1.6,3.8,65,0.00,,,0.00,pywws,2013-05-21 16:06:00,
2013-05-21 18:11:00,66.0,53.9,30.34,North,0,1.6,3.1,65,0.00,,,0.00,pywws,2013-05-21 16:11:00,
2013-05-21 18:16:00,65.3,53.2,30.35,SE,135,0.0,2.2,65,0.00,,,0.00,pywws,2013-05-21 16:16:00,
2013-05-21 18:21:00,66.2,53.7,30.35,East,90,0.0,1.6,64,0.00,,,0.00,pywws,2013-05-21 16:21:00,
2013-05-21 18:26:00,66.2,53.2,30.35,SE,135,0.7,3.1,63,0.00,,,0.00,pywws,2013-05-21 16:26:00,
2013-05-21 18:31:00,66.2,54.1,30.35,SE,135,3.8,6.0,65,0.00,,,0.00,pywws,2013-05-21 16:31:00,
2013-05-21 18:36:00,66.2,53.7,30.35,East,90,1.6,3.8,64,0.00,,,0.00,pywws,2013-05-21 16:36:00,
2013-05-21 18:41:00,66.4,53.8,30.35,SE,135,6.0,9.2,64,0.00,,,0.00,pywws,2013-05-21 16:41:00,
2013-05-21 18:46:00,65.5,53.8,30.35,ESE,112,1.6,4.5,66,0.00,,,0.00,pywws,2013-05-21 16:46:00,
2013-05-21 18:51:00,65.7,54.4,30.35,East,90,0.7,3.1,67,0.00,,,0.00,pywws,2013-05-21 16:51:00,
2013-05-21 19:01:00,64.8,53.5,30.35,East,90,3.1,4.5,67,0.00,,,0.00,pywws,2013-05-21 17:01:00,
2013-05-21 19:04:00,65.7,54.4,30.35,ENE,68,2.2,3.8,67,0.00,,,0.00,pywws,2013-05-21 17:04:00,
2013-05-21 19:06:00,63.9,52.3,30.35,SE,135,2.2,3.8,66,0.00,,,0.00,pywws,2013-05-21 17:06:00,
2013-05-21 19:11:00,64.8,53.9,30.35,SE,135,4.5,6.9,68,0.00,,,0.00,pywws,2013-05-21 17:11:00,
2013-05-21 19:16:00,64.6,53.8,30.35,SE,135,3.8,6.9,68,0.00,,,0.00,pywws,2013-05-21 17:16:00,
2013-05-21 19:21:00,63.1,54.0,30.35,East,90,5.4,9.2,72,0.00,,,0.00,pywws,2013-05-21 17:21:00,
2013-05-21 19:26:00,62.1,54.4,30.35,NE,45,3.1,5.4,76,0.01,,,0.01,pywws,2013-05-21 17:26:00,
2013-05-21 19:31:00,61.9,55.6,30.35,SE,135,2.2,5.4,80,0.01,,,0.01,pywws,2013-05-21 17:31:00,
2013-05-21 19:36:00,60.8,55.6,30.36,South,180,1.6,5.4,83,0.02,,,0.02,pywws,2013-05-21 17:36:00,
2013-05-21 19:41:00,60.8,56.3,30.35,South,180,2.2,6.0,85,0.02,,,0.02,pywws,2013-05-21 17:41:00,
2013-05-21 19:46:00,60.3,56.1,30.35,SE,135,1.6,5.4,86,0.02,,,0.02,pywws,2013-05-21 17:46:00,
2013-05-21 19:51:00,60.8,56.6,30.34,SW,225,1.6,3.1,86,0.04,,,0.04,pywws,2013-05-21 17:51:00,
2013-05-21 20:01:00,59.7,56.2,30.33,East,90,0.7,2.2,88,0.05,,,0.05,pywws,2013-05-21 18:01:00,
2013-05-21 20:04:00,59.5,55.7,30.34,NNW,338,0.7,2.2,87,0.05,,,0.05,pywws,2013-05-21 18:04:00,
2013-05-21 20:06:00,59.7,56.2,30.32,North,0,1.6,2.2,88,0.06,,,0.06,pywws,2013-05-21 18:06:00,
2013-05-21 20:11:00,59.7,57.4,30.31,East,90,2.2,4.5,92,0.06,,,0.06,pywws,2013-05-21 18:11:00,
2013-05-21 20:16:00,59.5,57.2,30.31,East,90,1.6,3.1,92,0.07,,,0.07,pywws,2013-05-21 18:16:00,
2013-05-21 20:21:00,59.4,57.3,30.31,NW,315,3.1,6.0,93,0.07,,,0.07,pywws,2013-05-21 18:21:00,
2013-05-21 20:26:00,59.2,57.5,30.31,NW,315,3.1,4.5,94,0.06,,,0.07,pywws,2013-05-21 18:26:00,
2013-05-21 20:31:00,59.2,57.7,30.31,NW,315,3.1,6.0,95,0.07,,,0.08,pywws,2013-05-21 18:31:00,
2013-05-21 20:36:00,59.0,57.3,30.31,NW,315,4.5,6.0,94,0.07,,,0.09,pywws,2013-05-21 18:36:00,
2013-05-21 20:41:00,58.6,56.9,30.30,NW,315,3.1,6.0,94,0.08,,,0.11,pywws,2013-05-21 18:41:00,
2013-05-21 20:46:00,58.3,56.3,30.29,WNW,292,8.3,11.4,93,0.09,,,0.12,pywws,2013-05-21 18:46:00,
2013-05-21 20:51:00,58.1,56.4,30.29,WNW,292,4.5,9.2,94,0.08,,,0.12,pywws,2013-05-21 18:51:00,
2013-05-21 21:01:00,57.6,55.8,30.28,WNW,292,5.4,8.3,94,0.07,,,0.12,pywws,2013-05-21 19:01:00,
2013-05-21 21:04:00,57.7,56.0,30.28,North,0,7.6,9.8,94,0.07,,,0.12,pywws,2013-05-21 19:04:00,
2013-05-21 21:06:00,57.6,55.8,30.29,NW,315,5.4,9.8,94,0.06,,,0.12,pywws,2013-05-21 19:06:00,
2013-05-21 21:11:00,57.4,56.0,30.29,North,0,3.1,7.6,95,0.06,,,0.12,pywws,2013-05-21 19:11:00,
2013-05-21 21:16:00,57.9,56.5,30.29,NW,315,3.8,6.9,95,0.05,,,0.12,pywws,2013-05-21 19:16:00,
2013-05-21 21:21:00,57.9,56.5,30.29,NNW,338,3.8,7.6,95,0.05,,,0.12,pywws,2013-05-21 19:21:00,
2013-05-21 21:26:00,57.9,56.5,30.29,NW,315,5.4,8.3,95,0.05,,,0.12,pywws,2013-05-21 19:26:00,
2013-05-21 21:31:00,57.7,56.3,30.31,NW,315,3.1,5.4,95,0.04,,,0.12,pywws,2013-05-21 19:31:00,
2013-05-21 21:36:00,58.3,56.9,30.31,NW,315,3.8,5.4,95,0.02,,,0.12,pywws,2013-05-21 19:36:00,
2013-05-21 21:41:00,57.7,56.6,30.30,NW,315,6.0,10.7,96,0.01,,,0.12,pywws,2013-05-21 19:41:00,
2013-05-21 21:46:00,58.1,57.0,30.31,NW,315,3.8,6.9,96,0.00,,,0.12,pywws,2013-05-21 19:46:00,
2013-05-21 21:51:00,58.3,57.1,30.31,WNW,292,5.4,13.6,96,0.00,,,0.12,pywws,2013-05-21 19:51:00,
2013-05-21 22:01:00,58.6,57.2,30.31,NW,315,4.5,6.0,95,0.00,,,0.12,pywws,2013-05-21 20:01:00,
2013-05-21 22:04:00,58.8,57.7,30.30,North,0,5.4,7.6,96,0.00,,,0.12,pywws,2013-05-21 20:04:00,
2013-05-21 22:06:00,58.6,57.2,30.31,NNW,338,2.2,3.8,95,0.00,,,0.12,pywws,2013-05-21 20:06:00,
2013-05-21 22:11:00,58.5,57.0,30.31,NW,315,2.2,4.5,95,0.00,,,0.12,pywws,2013-05-21 20:11:00,
2013-05-21 22:16:00,58.6,57.2,30.30,NW,315,3.8,6.0,95,0.00,,,0.12,pywws,2013-05-21 20:16:00,
2013-05-21 22:21:00,58.3,56.9,30.31,NW,315,3.8,6.0,95,0.00,,,0.12,pywws,2013-05-21 20:21:00,
2013-05-21 22:26:00,59.2,57.7,30.31,NW,315,1.6,3.8,95,0.00,,,0.12,pywws,2013-05-21 20:26:00,
2013-05-21 22:31:00,60.6,59.2,30.31,NW,315,3.1,6.0,95,0.00,,,0.12,pywws,2013-05-21 20:31:00,
2013-05-21 22:36:00,59.0,57.6,30.31,North,0,3.1,6.9,95,0.00,,,0.12,pywws,2013-05-21 20:36:00,
2013-05-21 22:41:00,59.5,58.1,30.31,North,0,3.1,4.5,95,0.00,,,0.12,pywws,2013-05-21 20:41:00,
2013-05-21 22:46:00,59.2,57.7,30.32,NW,315,4.5,7.6,95,0.00,,,0.12,pywws,2013-05-21 20:46:00,
2013-05-21 22:51:00,58.1,56.4,30.32,NW,315,3.8,6.9,94,0.00,,,0.12,pywws,2013-05-21 20:51:00,
2013-05-21 23:01:00,58.6,56.9,30.32,NW,315,2.2,4.5,94,0.00,,,0.12,pywws,2013-05-21 21:01:00,
2013-05-21 23:04:00,58.5,56.7,30.32,NW,315,3.1,5.4,94,0.00,,,0.12,pywws,2013-05-21 21:04:00,
2013-05-21 23:06:00,58.3,56.9,30.32,North,0,1.6,2.2,95,0.00,,,0.12,pywws,2013-05-21 21:06:00,
2013-05-21 23:11:00,58.6,57.2,30.31,NW,315,4.5,8.3,95,0.00,,,0.12,pywws,2013-05-21 21:11:00,
2013-05-21 23:16:00,58.3,56.9,30.31,NW,315,2.2,5.4,95,0.01,,,0.13,pywws,2013-05-21 21:16:00,
2013-05-21 23:21:00,58.1,57.0,30.30,NW,315,2.2,4.5,96,0.01,,,0.13,pywws,2013-05-21 21:21:00,
2013-05-21 23:26:00,58.8,57.7,30.30,North,0,2.2,3.8,96,0.01,,,0.13,pywws,2013-05-21 21:26:00,
2013-05-21 23:31:00,57.9,56.8,30.29,NNW,338,3.1,5.4,96,0.01,,,0.13,pywws,2013-05-21 21:31:00,
2013-05-21 23:36:00,58.1,57.3,30.29,NW,315,2.2,6.0,97,0.01,,,0.13,pywws,2013-05-21 21:36:00,
2013-05-21 23:41:00,58.3,57.4,30.29,East,90,1.6,6.0,97,0.01,,,0.13,pywws,2013-05-21 21:41:00,
2013-05-21 23:46:00,58.6,58.1,30.29,North,0,3.1,6.0,98,0.01,,,0.13,pywws,2013-05-21 21:46:00,
2013-05-21 23:51:00,58.6,58.1,30.29,NW,315,3.8,9.2,98,0.02,,,0.14,pywws,2013-05-21 21:51:00,